sensor_id;sensor_type;location;lat;lon;timestamp;temperature;humidity
15906;DHT22;8051;50.820;4.884;2023-05-10T00:02:06;12.20;99.90
15906;DHT22;8051;50.820;4.884;2023-05-10T00:04:33;12.20;99.90
15906;DHT22;8051;50.820;4.884;2023-05-10T00:07:00;12.10;99.90
15906;DHT22;8051;50.820;4.884;2023-05-10T00:09:28;12.20;99.90
15906;DHT22;8051;50.820;4.884;2023-05-10T00:11:56;12.20;99.90
15906;DHT22;8051;50.820;4.884;2023-05-10T00:14:24;12.20;99.90
15906;DHT22;8051;50.820;4.884;2023-05-10T00:16:51;12.20;99.90
15906;DHT22;8051;50.820;4.884;2023-05-10T00:19:18;12.20;99.90
15906;DHT22;8051;50.820;4.884;2023-05-10T00:21:45;12.20;99.90
15906;DHT22;8051;50.820;4.884;2023-05-10T00:24:12;12.30;99.90
15906;DHT22;8051;50.820;4.884;2023-05-10T00:26:40;12.30;99.90
15906;DHT22;8051;50.820;4.884;2023-05-10T00:29:09;12.40;99.90
15906;DHT22;8051;50.820;4.884;2023-05-10T00:31:36;12.40;99.90
15906;DHT22;8051;50.820;4.884;2023-05-10T00:34:04;12.40;99.90
15906;DHT22;8051;50.820;4.884;2023-05-10T00:36:31;12.40;99.90
15906;DHT22;8051;50.820;4.884;2023-05-10T00:38:58;12.40;99.90
15906;DHT22;8051;50.820;4.884;2023-05-10T00:41:26;12.40;99.90
15906;DHT22;8051;50.820;4.884;2023-05-10T00:43:53;12.40;99.90
15906;DHT22;8051;50.820;4.884;2023-05-10T00:46:21;12.40;99.90
15906;DHT22;8051;50.820;4.884;2023-05-10T00:48:48;12.40;99.90
15906;DHT22;8051;50.820;4.884;2023-05-10T00:51:16;12.40;99.90
15906;DHT22;8051;50.820;4.884;2023-05-10T00:53:45;12.40;99.90
15906;DHT22;8051;50.820;4.884;2023-05-10T00:56:13;12.30;99.90
15906;DHT22;8051;50.820;4.884;2023-05-10T00:58:40;12.40;99.90
15906;DHT22;8051;50.820;4.884;2023-05-10T01:01:07;12.30;99.90
15906;DHT22;8051;50.820;4.884;2023-05-10T01:03:36;12.40;99.90
15906;DHT22;8051;50.820;4.884;2023-05-10T01:06:04;12.40;99.90
15906;DHT22;8051;50.820;4.884;2023-05-10T01:08:31;12.40;99.90
15906;DHT22;8051;50.820;4.884;2023-05-10T01:10:58;12.30;99.90
15906;DHT22;8051;50.820;4.884;2023-05-10T01:13:32;12.30;99.90
15906;DHT22;8051;50.820;4.884;2023-05-10T01:16:00;12.30;99.90
15906;DHT22;8051;50.820;4.884;2023-05-10T01:18:29;12.30;99.90
15906;DHT22;8051;50.820;4.884;2023-05-10T01:21:07;12.30;99.90
15906;DHT22;8051;50.820;4.884;2023-05-10T01:23:58;12.30;99.90
15906;DHT22;8051;50.820;4.884;2023-05-10T01:29:42;12.30;99.90
15906;DHT22;8051;50.820;4.884;2023-05-10T01:32:27;12.40;99.90
15906;DHT22;8051;50.820;4.884;2023-05-10T01:35:00;12.40;99.90
15906;DHT22;8051;50.820;4.884;2023-05-10T01:37:36;12.50;99.90
15906;DHT22;8051;50.820;4.884;2023-05-10T01:40:11;12.50;99.90
15906;DHT22;8051;50.820;4.884;2023-05-10T01:42:44;12.40;99.90
15906;DHT22;8051;50.820;4.884;2023-05-10T01:45:18;12.40;99.90
15906;DHT22;8051;50.820;4.884;2023-05-10T01:47:52;12.40;99.90
15906;DHT22;8051;50.820;4.884;2023-05-10T01:50:27;12.40;99.90
15906;DHT22;8051;50.820;4.884;2023-05-10T01:52:58;12.40;99.90
15906;DHT22;8051;50.820;4.884;2023-05-10T01:55:29;12.40;99.90
15906;DHT22;8051;50.820;4.884;2023-05-10T01:58:02;12.30;99.90
15906;DHT22;8051;50.820;4.884;2023-05-10T02:00:32;12.30;99.90
15906;DHT22;8051;50.820;4.884;2023-05-10T02:03:05;12.30;99.90
15906;DHT22;8051;50.820;4.884;2023-05-10T02:05:33;12.30;99.90
15906;DHT22;8051;50.820;4.884;2023-05-10T02:08:01;12.40;99.90
15906;DHT22;8051;50.820;4.884;2023-05-10T02:10:30;12.40;99.90
15906;DHT22;8051;50.820;4.884;2023-05-10T02:12:59;12.40;99.90
15906;DHT22;8051;50.820;4.884;2023-05-10T02:15:27;12.40;99.90
15906;DHT22;8051;50.820;4.884;2023-05-10T02:17:55;12.40;99.90
15906;DHT22;8051;50.820;4.884;2023-05-10T02:20:25;12.40;99.90
15906;DHT22;8051;50.820;4.884;2023-05-10T02:22:55;12.50;99.90
15906;DHT22;8051;50.820;4.884;2023-05-10T02:25:23;12.50;99.90
15906;DHT22;8051;50.820;4.884;2023-05-10T02:27:51;12.50;99.90
15906;DHT22;8051;50.820;4.884;2023-05-10T02:30:20;12.50;99.90
15906;DHT22;8051;50.820;4.884;2023-05-10T02:32:49;12.50;99.90
15906;DHT22;8051;50.820;4.884;2023-05-10T02:35:17;12.50;99.90
15906;DHT22;8051;50.820;4.884;2023-05-10T02:37:46;12.60;99.90
15906;DHT22;8051;50.820;4.884;2023-05-10T02:40:15;12.50;99.90
15906;DHT22;8051;50.820;4.884;2023-05-10T02:42:44;12.50;99.90
15906;DHT22;8051;50.820;4.884;2023-05-10T02:45:14;12.60;99.90
15906;DHT22;8051;50.820;4.884;2023-05-10T02:47:42;12.60;99.90
15906;DHT22;8051;50.820;4.884;2023-05-10T02:50:10;12.50;99.90
15906;DHT22;8051;50.820;4.884;2023-05-10T02:52:40;12.50;99.90
15906;DHT22;8051;50.820;4.884;2023-05-10T02:55:13;12.50;99.90
15906;DHT22;8051;50.820;4.884;2023-05-10T02:57:49;12.50;99.90
15906;DHT22;8051;50.820;4.884;2023-05-10T03:00:18;12.50;99.90
15906;DHT22;8051;50.820;4.884;2023-05-10T03:02:45;12.50;99.90
15906;DHT22;8051;50.820;4.884;2023-05-10T03:05:12;12.50;99.90
15906;DHT22;8051;50.820;4.884;2023-05-10T03:07:40;12.50;99.90
15906;DHT22;8051;50.820;4.884;2023-05-10T03:10:07;12.50;99.90
15906;DHT22;8051;50.820;4.884;2023-05-10T03:12:52;12.50;99.90
15906;DHT22;8051;50.820;4.884;2023-05-10T03:15:31;12.50;99.90
15906;DHT22;8051;50.820;4.884;2023-05-10T03:18:04;12.50;99.90
15906;DHT22;8051;50.820;4.884;2023-05-10T03:20:36;12.50;99.90
15906;DHT22;8051;50.820;4.884;2023-05-10T03:23:12;12.40;99.90
15906;DHT22;8051;50.820;4.884;2023-05-10T03:25:41;12.40;99.90
15906;DHT22;8051;50.820;4.884;2023-05-10T03:28:12;12.40;99.90
15906;DHT22;8051;50.820;4.884;2023-05-10T03:30:39;12.40;99.90
15906;DHT22;8051;50.820;4.884;2023-05-10T03:33:07;12.40;99.90
15906;DHT22;8051;50.820;4.884;2023-05-10T03:35:34;12.50;99.90
15906;DHT22;8051;50.820;4.884;2023-05-10T03:38:02;12.40;99.90
15906;DHT22;8051;50.820;4.884;2023-05-10T03:40:29;12.40;99.90
15906;DHT22;8051;50.820;4.884;2023-05-10T03:42:57;12.40;99.90
15906;DHT22;8051;50.820;4.884;2023-05-10T03:45:26;12.40;99.90
15906;DHT22;8051;50.820;4.884;2023-05-10T03:47:53;12.40;99.90
15906;DHT22;8051;50.820;4.884;2023-05-10T03:50:21;12.30;99.90
15906;DHT22;8051;50.820;4.884;2023-05-10T03:52:48;12.30;99.90
15906;DHT22;8051;50.820;4.884;2023-05-10T03:55:16;12.30;99.90
15906;DHT22;8051;50.820;4.884;2023-05-10T03:57:43;12.30;99.90
15906;DHT22;8051;50.820;4.884;2023-05-10T04:00:12;12.30;99.90
15906;DHT22;8051;50.820;4.884;2023-05-10T04:02:41;12.30;99.90
15906;DHT22;8051;50.820;4.884;2023-05-10T04:05:09;12.30;99.90
15906;DHT22;8051;50.820;4.884;2023-05-10T04:07:36;12.30;99.90
15906;DHT22;8051;50.820;4.884;2023-05-10T04:10:04;12.20;99.90
15906;DHT22;8051;50.820;4.884;2023-05-10T04:12:31;12.20;99.90
15906;DHT22;8051;50.820;4.884;2023-05-10T04:14:58;12.20;99.90
15906;DHT22;8051;50.820;4.884;2023-05-10T04:17:26;12.20;99.90
15906;DHT22;8051;50.820;4.884;2023-05-10T04:19:55;12.20;99.90
15906;DHT22;8051;50.820;4.884;2023-05-10T04:22:22;12.20;99.90
15906;DHT22;8051;50.820;4.884;2023-05-10T04:24:49;12.20;99.90
15906;DHT22;8051;50.820;4.884;2023-05-10T04:27:16;12.20;99.90
15906;DHT22;8051;50.820;4.884;2023-05-10T04:29:43;12.20;99.90
15906;DHT22;8051;50.820;4.884;2023-05-10T04:32:10;12.20;99.90
15906;DHT22;8051;50.820;4.884;2023-05-10T04:34:37;12.20;99.90
15906;DHT22;8051;50.820;4.884;2023-05-10T04:37:06;12.20;99.90
15906;DHT22;8051;50.820;4.884;2023-05-10T04:39:33;12.20;99.90
15906;DHT22;8051;50.820;4.884;2023-05-10T04:42:00;12.10;99.90
15906;DHT22;8051;50.820;4.884;2023-05-10T04:44:28;12.20;99.90
15906;DHT22;8051;50.820;4.884;2023-05-10T04:46:56;12.20;99.90
15906;DHT22;8051;50.820;4.884;2023-05-10T04:49:23;12.10;99.90
15906;DHT22;8051;50.820;4.884;2023-05-10T04:51:50;12.10;99.90
15906;DHT22;8051;50.820;4.884;2023-05-10T04:54:18;12.00;99.90
15906;DHT22;8051;50.820;4.884;2023-05-10T04:56:45;11.90;99.90
15906;DHT22;8051;50.820;4.884;2023-05-10T04:59:12;11.90;99.90
15906;DHT22;8051;50.820;4.884;2023-05-10T05:01:39;11.90;99.90
15906;DHT22;8051;50.820;4.884;2023-05-10T05:04:07;12.00;99.90
15906;DHT22;8051;50.820;4.884;2023-05-10T05:06:34;11.90;99.90
15906;DHT22;8051;50.820;4.884;2023-05-10T05:09:01;11.90;99.90
15906;DHT22;8051;50.820;4.884;2023-05-10T05:11:29;11.90;99.90
15906;DHT22;8051;50.820;4.884;2023-05-10T05:13:56;11.90;99.90
15906;DHT22;8051;50.820;4.884;2023-05-10T05:16:24;11.90;99.90
15906;DHT22;8051;50.820;4.884;2023-05-10T05:18:52;12.00;99.90
15906;DHT22;8051;50.820;4.884;2023-05-10T05:21:19;11.90;99.90
15906;DHT22;8051;50.820;4.884;2023-05-10T05:23:47;11.90;99.90
15906;DHT22;8051;50.820;4.884;2023-05-10T05:26:14;11.90;99.90
15906;DHT22;8051;50.820;4.884;2023-05-10T05:28:43;11.90;99.90
15906;DHT22;8051;50.820;4.884;2023-05-10T05:31:10;11.90;99.90
15906;DHT22;8051;50.820;4.884;2023-05-10T05:33:37;11.90;99.90
15906;DHT22;8051;50.820;4.884;2023-05-10T05:36:05;12.00;99.90
15906;DHT22;8051;50.820;4.884;2023-05-10T05:38:32;12.00;99.90
15906;DHT22;8051;50.820;4.884;2023-05-10T05:41:00;12.10;99.90
15906;DHT22;8051;50.820;4.884;2023-05-10T05:43:27;12.10;99.90
15906;DHT22;8051;50.820;4.884;2023-05-10T05:45:55;12.10;99.90
15906;DHT22;8051;50.820;4.884;2023-05-10T05:48:23;12.10;99.90
15906;DHT22;8051;50.820;4.884;2023-05-10T05:50:53;12.20;99.90
15906;DHT22;8051;50.820;4.884;2023-05-10T05:53:21;12.20;99.90
15906;DHT22;8051;50.820;4.884;2023-05-10T05:55:52;12.20;99.90
15906;DHT22;8051;50.820;4.884;2023-05-10T05:58:20;12.30;99.90
15906;DHT22;8051;50.820;4.884;2023-05-10T06:00:47;12.30;99.90
15906;DHT22;8051;50.820;4.884;2023-05-10T06:03:16;12.30;99.90
15906;DHT22;8051;50.820;4.884;2023-05-10T06:05:43;12.40;99.90
15906;DHT22;8051;50.820;4.884;2023-05-10T06:08:10;12.50;99.90
15906;DHT22;8051;50.820;4.884;2023-05-10T06:10:38;12.50;99.90
15906;DHT22;8051;50.820;4.884;2023-05-10T06:13:05;12.50;99.90
15906;DHT22;8051;50.820;4.884;2023-05-10T06:15:32;12.60;99.90
15906;DHT22;8051;50.820;4.884;2023-05-10T06:17:59;12.60;99.90
15906;DHT22;8051;50.820;4.884;2023-05-10T06:20:27;12.70;99.90
15906;DHT22;8051;50.820;4.884;2023-05-10T06:22:57;12.70;99.90
15906;DHT22;8051;50.820;4.884;2023-05-10T06:25:24;12.80;99.90
15906;DHT22;8051;50.820;4.884;2023-05-10T06:27:51;12.80;99.90
15906;DHT22;8051;50.820;4.884;2023-05-10T06:30:23;13.00;99.90
15906;DHT22;8051;50.820;4.884;2023-05-10T06:32:53;13.00;99.90
15906;DHT22;8051;50.820;4.884;2023-05-10T06:35:20;13.00;99.90
15906;DHT22;8051;50.820;4.884;2023-05-10T06:37:50;13.10;99.90
15906;DHT22;8051;50.820;4.884;2023-05-10T06:40:18;13.20;99.90
15906;DHT22;8051;50.820;4.884;2023-05-10T06:42:46;13.20;99.90
15906;DHT22;8051;50.820;4.884;2023-05-10T06:45:13;13.10;99.90
15906;DHT22;8051;50.820;4.884;2023-05-10T06:47:41;13.00;99.90
15906;DHT22;8051;50.820;4.884;2023-05-10T06:50:09;12.80;99.90
15906;DHT22;8051;50.820;4.884;2023-05-10T06:52:37;12.70;99.90
15906;DHT22;8051;50.820;4.884;2023-05-10T06:55:07;12.60;99.90
15906;DHT22;8051;50.820;4.884;2023-05-10T06:57:35;12.50;99.90
15906;DHT22;8051;50.820;4.884;2023-05-10T07:00:03;12.50;99.90
15906;DHT22;8051;50.820;4.884;2023-05-10T07:02:31;12.50;99.90
15906;DHT22;8051;50.820;4.884;2023-05-10T07:04:58;12.70;99.90
15906;DHT22;8051;50.820;4.884;2023-05-10T07:07:26;12.80;99.90
15906;DHT22;8051;50.820;4.884;2023-05-10T07:09:53;12.90;99.90
15906;DHT22;8051;50.820;4.884;2023-05-10T07:12:24;12.80;99.90
15906;DHT22;8051;50.820;4.884;2023-05-10T07:14:51;12.80;99.90
15906;DHT22;8051;50.820;4.884;2023-05-10T07:17:18;12.80;99.90
15906;DHT22;8051;50.820;4.884;2023-05-10T07:19:46;12.80;99.90
15906;DHT22;8051;50.820;4.884;2023-05-10T07:22:13;12.70;99.90
15906;DHT22;8051;50.820;4.884;2023-05-10T07:24:41;12.60;99.90
15906;DHT22;8051;50.820;4.884;2023-05-10T07:27:09;12.60;99.90
15906;DHT22;8051;50.820;4.884;2023-05-10T07:29:37;12.60;99.90
15906;DHT22;8051;50.820;4.884;2023-05-10T07:32:06;12.50;99.90
15906;DHT22;8051;50.820;4.884;2023-05-10T07:34:34;12.60;99.90
15906;DHT22;8051;50.820;4.884;2023-05-10T07:37:01;12.70;99.90
15906;DHT22;8051;50.820;4.884;2023-05-10T07:39:28;12.70;99.90
15906;DHT22;8051;50.820;4.884;2023-05-10T07:41:56;12.80;99.90
15906;DHT22;8051;50.820;4.884;2023-05-10T07:44:23;12.90;99.90
15906;DHT22;8051;50.820;4.884;2023-05-10T07:46:52;13.10;99.90
15906;DHT22;8051;50.820;4.884;2023-05-10T07:49:20;13.00;99.90
15906;DHT22;8051;50.820;4.884;2023-05-10T07:51:47;13.00;99.90
15906;DHT22;8051;50.820;4.884;2023-05-10T07:54:14;13.00;99.90
15906;DHT22;8051;50.820;4.884;2023-05-10T07:56:42;13.10;99.90
15906;DHT22;8051;50.820;4.884;2023-05-10T07:59:15;13.10;99.90
15906;DHT22;8051;50.820;4.884;2023-05-10T08:01:43;13.00;99.90
15906;DHT22;8051;50.820;4.884;2023-05-10T08:04:11;13.00;99.90
15906;DHT22;8051;50.820;4.884;2023-05-10T08:06:39;13.00;99.90
15906;DHT22;8051;50.820;4.884;2023-05-10T08:09:06;13.00;99.90
15906;DHT22;8051;50.820;4.884;2023-05-10T08:11:33;13.00;99.90
15906;DHT22;8051;50.820;4.884;2023-05-10T08:14:00;13.00;99.90
15906;DHT22;8051;50.820;4.884;2023-05-10T08:16:28;12.90;99.90
15906;DHT22;8051;50.820;4.884;2023-05-10T08:18:55;12.80;99.90
15906;DHT22;8051;50.820;4.884;2023-05-10T08:21:23;12.80;99.90
15906;DHT22;8051;50.820;4.884;2023-05-10T08:23:50;12.80;99.90
15906;DHT22;8051;50.820;4.884;2023-05-10T08:26:17;12.70;99.90
15906;DHT22;8051;50.820;4.884;2023-05-10T08:28:44;12.70;99.90
15906;DHT22;8051;50.820;4.884;2023-05-10T08:31:12;12.70;99.90
15906;DHT22;8051;50.820;4.884;2023-05-10T08:33:39;12.70;99.90
15906;DHT22;8051;50.820;4.884;2023-05-10T08:36:06;12.60;99.90
15906;DHT22;8051;50.820;4.884;2023-05-10T08:38:35;12.50;99.90
15906;DHT22;8051;50.820;4.884;2023-05-10T08:41:04;12.60;99.90
15906;DHT22;8051;50.820;4.884;2023-05-10T08:43:32;12.70;99.90
15906;DHT22;8051;50.820;4.884;2023-05-10T08:46:00;12.70;99.90
15906;DHT22;8051;50.820;4.884;2023-05-10T08:48:29;12.70;99.90
15906;DHT22;8051;50.820;4.884;2023-05-10T08:50:58;12.70;99.90
15906;DHT22;8051;50.820;4.884;2023-05-10T08:53:28;12.70;99.90
15906;DHT22;8051;50.820;4.884;2023-05-10T08:55:59;12.70;99.90
15906;DHT22;8051;50.820;4.884;2023-05-10T08:58:26;12.70;99.90
15906;DHT22;8051;50.820;4.884;2023-05-10T09:00:53;12.60;99.90
15906;DHT22;8051;50.820;4.884;2023-05-10T09:03:20;12.50;99.90
15906;DHT22;8051;50.820;4.884;2023-05-10T09:05:48;12.50;99.90
15906;DHT22;8051;50.820;4.884;2023-05-10T09:08:15;12.60;99.90
15906;DHT22;8051;50.820;4.884;2023-05-10T09:10:43;12.60;99.90
15906;DHT22;8051;50.820;4.884;2023-05-10T09:13:14;12.80;99.90
15906;DHT22;8051;50.820;4.884;2023-05-10T09:15:43;12.90;99.90
15906;DHT22;8051;50.820;4.884;2023-05-10T09:18:10;12.90;99.90
15906;DHT22;8051;50.820;4.884;2023-05-10T09:20:37;12.90;99.90
15906;DHT22;8051;50.820;4.884;2023-05-10T09:23:04;12.90;99.90
15906;DHT22;8051;50.820;4.884;2023-05-10T09:25:31;12.90;99.90
15906;DHT22;8051;50.820;4.884;2023-05-10T09:28:00;12.80;99.90
15906;DHT22;8051;50.820;4.884;2023-05-10T09:30:29;12.90;99.90
15906;DHT22;8051;50.820;4.884;2023-05-10T09:32:58;13.00;99.90
15906;DHT22;8051;50.820;4.884;2023-05-10T09:35:26;13.00;99.90
15906;DHT22;8051;50.820;4.884;2023-05-10T09:37:56;12.90;99.90
15906;DHT22;8051;50.820;4.884;2023-05-10T09:40:24;13.00;99.90
15906;DHT22;8051;50.820;4.884;2023-05-10T09:42:52;12.90;99.90
15906;DHT22;8051;50.820;4.884;2023-05-10T09:45:21;12.70;99.90
15906;DHT22;8051;50.820;4.884;2023-05-10T09:47:49;12.80;99.90
15906;DHT22;8051;50.820;4.884;2023-05-10T09:50:17;12.70;99.90
15906;DHT22;8051;50.820;4.884;2023-05-10T09:52:49;12.70;99.90
15906;DHT22;8051;50.820;4.884;2023-05-10T09:55:17;12.70;99.90
15906;DHT22;8051;50.820;4.884;2023-05-10T09:57:45;12.60;99.90
15906;DHT22;8051;50.820;4.884;2023-05-10T10:00:17;12.60;99.90
15906;DHT22;8051;50.820;4.884;2023-05-10T10:02:46;12.50;99.90
15906;DHT22;8051;50.820;4.884;2023-05-10T10:05:15;12.50;99.90
15906;DHT22;8051;50.820;4.884;2023-05-10T10:07:43;12.50;99.90
15906;DHT22;8051;50.820;4.884;2023-05-10T10:10:11;12.40;99.90
15906;DHT22;8051;50.820;4.884;2023-05-10T10:12:39;12.50;99.90
15906;DHT22;8051;50.820;4.884;2023-05-10T10:15:08;12.40;99.90
15906;DHT22;8051;50.820;4.884;2023-05-10T10:17:36;12.50;99.90
15906;DHT22;8051;50.820;4.884;2023-05-10T10:20:05;12.70;99.90
15906;DHT22;8051;50.820;4.884;2023-05-10T10:22:34;12.70;99.90
15906;DHT22;8051;50.820;4.884;2023-05-10T10:25:01;12.70;99.90
15906;DHT22;8051;50.820;4.884;2023-05-10T10:27:37;12.70;99.90
15906;DHT22;8051;50.820;4.884;2023-05-10T10:30:14;12.80;99.90
15906;DHT22;8051;50.820;4.884;2023-05-10T10:33:06;12.90;99.90
15906;DHT22;8051;50.820;4.884;2023-05-10T10:35:39;12.90;99.90
15906;DHT22;8051;50.820;4.884;2023-05-10T10:38:09;13.00;99.90
15906;DHT22;8051;50.820;4.884;2023-05-10T10:40:36;13.20;99.90
15906;DHT22;8051;50.820;4.884;2023-05-10T10:43:23;13.20;99.90
15906;DHT22;8051;50.820;4.884;2023-05-10T10:46:13;13.20;99.90
15906;DHT22;8051;50.820;4.884;2023-05-10T10:48:41;13.10;99.90
15906;DHT22;8051;50.820;4.884;2023-05-10T10:51:09;13.20;99.90
15906;DHT22;8051;50.820;4.884;2023-05-10T10:53:39;13.40;99.90
15906;DHT22;8051;50.820;4.884;2023-05-10T10:56:08;13.60;99.90
15906;DHT22;8051;50.820;4.884;2023-05-10T10:58:36;13.70;99.90
15906;DHT22;8051;50.820;4.884;2023-05-10T11:01:14;13.70;99.90
15906;DHT22;8051;50.820;4.884;2023-05-10T11:06:32;13.80;99.90
15906;DHT22;8051;50.820;4.884;2023-05-10T11:09:05;13.80;99.90
15906;DHT22;8051;50.820;4.884;2023-05-10T11:11:34;13.90;99.90
15906;DHT22;8051;50.820;4.884;2023-05-10T11:14:04;14.10;99.90
15906;DHT22;8051;50.820;4.884;2023-05-10T11:16:41;14.20;99.90
15906;DHT22;8051;50.820;4.884;2023-05-10T11:19:11;14.40;99.90
15906;DHT22;8051;50.820;4.884;2023-05-10T11:21:45;14.40;99.90
15906;DHT22;8051;50.820;4.884;2023-05-10T11:24:15;14.50;99.90
15906;DHT22;8051;50.820;4.884;2023-05-10T11:26:42;14.50;99.90
15906;DHT22;8051;50.820;4.884;2023-05-10T11:29:09;14.60;99.90
15906;DHT22;8051;50.820;4.884;2023-05-10T11:31:42;14.90;99.90
15906;DHT22;8051;50.820;4.884;2023-05-10T11:34:09;14.90;99.90
15906;DHT22;8051;50.820;4.884;2023-05-10T11:36:37;15.00;99.90
15906;DHT22;8051;50.820;4.884;2023-05-10T11:39:04;15.00;99.90
15906;DHT22;8051;50.820;4.884;2023-05-10T11:41:33;14.90;99.90
15906;DHT22;8051;50.820;4.884;2023-05-10T11:44:00;14.90;99.90
15906;DHT22;8051;50.820;4.884;2023-05-10T11:46:28;14.80;99.90
15906;DHT22;8051;50.820;4.884;2023-05-10T11:48:58;14.80;99.90
15906;DHT22;8051;50.820;4.884;2023-05-10T11:51:27;14.90;99.90
15906;DHT22;8051;50.820;4.884;2023-05-10T11:53:56;15.10;99.90
15906;DHT22;8051;50.820;4.884;2023-05-10T11:56:23;15.20;99.90
15906;DHT22;8051;50.820;4.884;2023-05-10T11:58:56;15.20;99.90
15906;DHT22;8051;50.820;4.884;2023-05-10T12:01:24;15.00;99.90
15906;DHT22;8051;50.820;4.884;2023-05-10T12:03:53;15.10;99.90
15906;DHT22;8051;50.820;4.884;2023-05-10T12:06:21;15.30;99.90
15906;DHT22;8051;50.820;4.884;2023-05-10T12:08:49;15.30;99.90
15906;DHT22;8051;50.820;4.884;2023-05-10T12:11:18;15.20;99.90
15906;DHT22;8051;50.820;4.884;2023-05-10T12:13:46;15.10;99.90
15906;DHT22;8051;50.820;4.884;2023-05-10T12:16:16;15.40;99.90
15906;DHT22;8051;50.820;4.884;2023-05-10T12:18:43;15.80;99.90
15906;DHT22;8051;50.820;4.884;2023-05-10T12:21:11;16.20;99.90
15906;DHT22;8051;50.820;4.884;2023-05-10T12:23:39;16.60;99.90
15906;DHT22;8051;50.820;4.884;2023-05-10T12:26:06;16.80;99.90
15906;DHT22;8051;50.820;4.884;2023-05-10T12:28:35;16.50;99.90
15906;DHT22;8051;50.820;4.884;2023-05-10T12:31:03;16.50;99.90
15906;DHT22;8051;50.820;4.884;2023-05-10T12:33:37;16.40;99.90
15906;DHT22;8051;50.820;4.884;2023-05-10T12:36:08;16.50;99.90
15906;DHT22;8051;50.820;4.884;2023-05-10T12:38:36;16.50;99.90
15906;DHT22;8051;50.820;4.884;2023-05-10T12:41:05;16.70;99.90
15906;DHT22;8051;50.820;4.884;2023-05-10T12:43:33;16.90;99.90
15906;DHT22;8051;50.820;4.884;2023-05-10T12:46:04;17.00;99.90
15906;DHT22;8051;50.820;4.884;2023-05-10T12:48:32;17.20;99.90
15906;DHT22;8051;50.820;4.884;2023-05-10T12:51:01;17.30;99.90
15906;DHT22;8051;50.820;4.884;2023-05-10T12:53:28;17.40;99.90
15906;DHT22;8051;50.820;4.884;2023-05-10T12:55:56;17.50;99.90
15906;DHT22;8051;50.820;4.884;2023-05-10T12:58:23;17.50;99.90
15906;DHT22;8051;50.820;4.884;2023-05-10T13:00:50;17.40;99.90
15906;DHT22;8051;50.820;4.884;2023-05-10T13:03:18;17.20;99.90
15906;DHT22;8051;50.820;4.884;2023-05-10T13:05:45;17.40;99.90
15906;DHT22;8051;50.820;4.884;2023-05-10T13:08:14;17.50;99.90
15906;DHT22;8051;50.820;4.884;2023-05-10T13:10:41;17.50;99.90
15906;DHT22;8051;50.820;4.884;2023-05-10T13:13:08;17.40;99.90
15906;DHT22;8051;50.820;4.884;2023-05-10T13:15:35;17.30;99.90
15906;DHT22;8051;50.820;4.884;2023-05-10T13:18:02;17.40;99.90
15906;DHT22;8051;50.820;4.884;2023-05-10T13:20:30;17.50;99.90
15906;DHT22;8051;50.820;4.884;2023-05-10T13:22:57;17.40;99.90
15906;DHT22;8051;50.820;4.884;2023-05-10T13:25:25;17.20;99.90
15906;DHT22;8051;50.820;4.884;2023-05-10T13:27:52;17.10;99.90
15906;DHT22;8051;50.820;4.884;2023-05-10T13:30:20;17.00;99.90
15906;DHT22;8051;50.820;4.884;2023-05-10T13:32:47;17.20;99.90
15906;DHT22;8051;50.820;4.884;2023-05-10T13:35:14;17.30;99.90
15906;DHT22;8051;50.820;4.884;2023-05-10T13:37:41;17.50;99.90
15906;DHT22;8051;50.820;4.884;2023-05-10T13:40:09;17.60;99.90
15906;DHT22;8051;50.820;4.884;2023-05-10T13:42:37;17.50;99.90
15906;DHT22;8051;50.820;4.884;2023-05-10T13:45:06;17.60;99.90
15906;DHT22;8051;50.820;4.884;2023-05-10T13:47:33;17.80;99.90
15906;DHT22;8051;50.820;4.884;2023-05-10T13:50:00;17.70;99.90
15906;DHT22;8051;50.820;4.884;2023-05-10T13:52:27;17.50;99.90
15906;DHT22;8051;50.820;4.884;2023-05-10T13:54:54;17.40;99.90
15906;DHT22;8051;50.820;4.884;2023-05-10T13:57:21;17.50;99.90
15906;DHT22;8051;50.820;4.884;2023-05-10T13:59:51;17.40;99.90
15906;DHT22;8051;50.820;4.884;2023-05-10T14:02:18;17.50;99.90
15906;DHT22;8051;50.820;4.884;2023-05-10T14:04:45;17.70;99.90
15906;DHT22;8051;50.820;4.884;2023-05-10T14:07:12;17.60;99.90
15906;DHT22;8051;50.820;4.884;2023-05-10T14:09:39;17.60;99.90
15906;DHT22;8051;50.820;4.884;2023-05-10T14:12:06;17.60;99.90
15906;DHT22;8051;50.820;4.884;2023-05-10T14:14:33;17.60;99.90
15906;DHT22;8051;50.820;4.884;2023-05-10T14:17:02;17.70;99.90
15906;DHT22;8051;50.820;4.884;2023-05-10T14:19:29;18.00;99.90
15906;DHT22;8051;50.820;4.884;2023-05-10T14:21:58;18.30;99.90
15906;DHT22;8051;50.820;4.884;2023-05-10T14:24:25;18.40;99.90
15906;DHT22;8051;50.820;4.884;2023-05-10T14:26:52;18.40;99.90
15906;DHT22;8051;50.820;4.884;2023-05-10T14:29:20;18.40;99.90
15906;DHT22;8051;50.820;4.884;2023-05-10T14:31:47;18.50;99.90
15906;DHT22;8051;50.820;4.884;2023-05-10T14:34:16;18.70;99.90
15906;DHT22;8051;50.820;4.884;2023-05-10T14:36:43;18.90;99.90
15906;DHT22;8051;50.820;4.884;2023-05-10T14:39:10;18.70;99.90
15906;DHT22;8051;50.820;4.884;2023-05-10T14:41:38;18.70;99.90
15906;DHT22;8051;50.820;4.884;2023-05-10T14:44:06;18.90;99.90
15906;DHT22;8051;50.820;4.884;2023-05-10T14:46:33;19.30;99.90
15906;DHT22;8051;50.820;4.884;2023-05-10T14:49:00;19.20;99.90
15906;DHT22;8051;50.820;4.884;2023-05-10T14:51:29;18.70;99.90
15906;DHT22;8051;50.820;4.884;2023-05-10T14:53:57;18.40;99.90
15906;DHT22;8051;50.820;4.884;2023-05-10T14:56:24;18.70;99.90
15906;DHT22;8051;50.820;4.884;2023-05-10T14:58:52;18.90;99.90
15906;DHT22;8051;50.820;4.884;2023-05-10T15:01:19;18.80;99.90
15906;DHT22;8051;50.820;4.884;2023-05-10T15:03:47;18.90;99.90
15906;DHT22;8051;50.820;4.884;2023-05-10T15:06:14;18.80;99.90
15906;DHT22;8051;50.820;4.884;2023-05-10T15:08:43;18.90;99.90
15906;DHT22;8051;50.820;4.884;2023-05-10T15:11:10;19.10;99.90
15906;DHT22;8051;50.820;4.884;2023-05-10T15:13:37;19.30;99.90
15906;DHT22;8051;50.820;4.884;2023-05-10T15:16:04;19.30;99.90
15906;DHT22;8051;50.820;4.884;2023-05-10T15:18:31;19.40;99.90
15906;DHT22;8051;50.820;4.884;2023-05-10T15:20:58;19.60;99.90
15906;DHT22;8051;50.820;4.884;2023-05-10T15:23:25;19.50;99.90
15906;DHT22;8051;50.820;4.884;2023-05-10T15:25:54;19.60;99.90
15906;DHT22;8051;50.820;4.884;2023-05-10T15:28:21;19.60;99.90
15906;DHT22;8051;50.820;4.884;2023-05-10T15:30:48;19.70;99.90
15906;DHT22;8051;50.820;4.884;2023-05-10T15:33:15;19.60;99.90
15906;DHT22;8051;50.820;4.884;2023-05-10T15:35:42;19.30;99.90
15906;DHT22;8051;50.820;4.884;2023-05-10T15:38:10;19.40;99.90
15906;DHT22;8051;50.820;4.884;2023-05-10T15:40:37;19.50;99.90
15906;DHT22;8051;50.820;4.884;2023-05-10T15:43:05;19.70;99.90
15906;DHT22;8051;50.820;4.884;2023-05-10T15:45:33;19.60;99.90
15906;DHT22;8051;50.820;4.884;2023-05-10T15:48:00;19.50;99.90
15906;DHT22;8051;50.820;4.884;2023-05-10T15:50:27;19.20;99.90
15906;DHT22;8051;50.820;4.884;2023-05-10T15:52:54;19.20;99.90
15906;DHT22;8051;50.820;4.884;2023-05-10T15:55:21;19.70;99.90
15906;DHT22;8051;50.820;4.884;2023-05-10T15:57:48;20.90;99.90
15906;DHT22;8051;50.820;4.884;2023-05-10T16:00:17;20.60;99.90